createdAt,value
2023-02-03T00:00:34.440Z,3.82
2023-02-03T00:03:02.650Z,3.80
2023-02-03T00:05:31.226Z,3.78
2023-02-03T00:07:59.371Z,3.77
2023-02-03T00:10:27.782Z,3.76
2023-02-03T00:12:57.779Z,3.77
2023-02-03T00:15:26.963Z,3.77
2023-02-03T00:17:55.267Z,3.76
2023-02-03T00:20:23.679Z,3.75
2023-02-03T00:22:52.925Z,3.70
2023-02-03T00:25:21.668Z,3.66
2023-02-03T00:27:50.180Z,3.60
2023-02-03T00:30:18.431Z,3.58
2023-02-03T00:32:46.936Z,3.58
2023-02-03T00:35:15.050Z,3.57
2023-02-03T00:37:43.146Z,3.56
2023-02-03T00:40:12.272Z,3.56
2023-02-03T00:42:40.422Z,3.58
2023-02-03T00:45:09.188Z,3.61
2023-02-03T00:47:37.882Z,3.60
2023-02-03T00:50:07.348Z,3.59
2023-02-03T00:52:37.176Z,3.60
2023-02-03T00:55:06.274Z,3.61
2023-02-03T00:57:35.754Z,3.63
2023-02-03T01:00:04.682Z,3.63
2023-02-03T01:02:33.513Z,3.64
2023-02-03T01:05:01.850Z,3.64
2023-02-03T01:07:33.379Z,3.63
2023-02-03T01:10:02.055Z,3.59
2023-02-03T01:12:34.680Z,3.58
2023-02-03T01:15:03.085Z,3.58
2023-02-03T01:17:31.490Z,3.59
2023-02-03T01:19:59.662Z,3.63
2023-02-03T01:22:30.730Z,3.64
2023-02-03T01:24:58.799Z,3.64
2023-02-03T01:27:27.443Z,3.63
2023-02-03T01:29:57.115Z,3.63
2023-02-03T01:32:25.472Z,3.65
2023-02-03T01:34:53.860Z,3.68
2023-02-03T01:37:22.975Z,3.71
2023-02-03T01:39:51.239Z,3.74
2023-02-03T01:42:19.706Z,3.74
2023-02-03T01:44:51.351Z,3.77
2023-02-03T01:47:37.061Z,3.81
2023-02-03T01:50:17.772Z,3.79
2023-02-03T01:52:47.915Z,3.80
2023-02-03T01:55:19.073Z,3.82
2023-02-03T01:57:57.373Z,3.83
2023-02-03T02:00:31.019Z,3.84
2023-02-03T02:02:59.433Z,3.84
2023-02-03T02:05:34.487Z,3.84
2023-02-03T02:08:03.436Z,3.84
2023-02-03T02:10:31.721Z,3.84
2023-02-03T02:13:01.800Z,3.84
2023-02-03T02:15:58.095Z,3.83
2023-02-03T02:18:48.011Z,3.82
2023-02-03T02:21:48.940Z,3.79
2023-02-03T02:24:38.429Z,3.65
2023-02-03T02:27:14.595Z,3.61
2023-02-03T02:30:19.843Z,3.62
2023-02-03T02:32:48.149Z,3.57
2023-02-03T02:35:41.216Z,3.55
2023-02-03T02:38:27.643Z,3.55
2023-02-03T02:41:12.167Z,3.57
2023-02-03T02:43:42.504Z,3.55
2023-02-03T02:46:35.646Z,3.55
2023-02-03T02:49:07.754Z,3.57
2023-02-03T02:51:35.834Z,3.59
2023-02-03T02:54:06.377Z,3.59
2023-02-03T02:56:34.856Z,3.57
2023-02-03T02:59:04.892Z,3.51
2023-02-03T03:01:33.283Z,3.50
2023-02-03T03:04:03.996Z,3.48
2023-02-03T03:06:55.371Z,3.50
2023-02-03T03:09:44.558Z,3.53
2023-02-03T03:12:15.893Z,3.54
2023-02-03T03:14:46.784Z,3.56
2023-02-03T03:17:18.530Z,3.57
2023-02-03T03:19:50.803Z,3.57
2023-02-03T03:22:21.016Z,3.56
2023-02-03T03:24:52.997Z,3.56
2023-02-03T03:27:23.633Z,3.57
2023-02-03T03:29:55.130Z,3.58
2023-02-03T03:32:23.500Z,3.56
2023-02-03T03:34:51.738Z,3.55
2023-02-03T03:37:22.500Z,3.56
2023-02-03T03:39:52.552Z,3.57
2023-02-03T03:42:34.762Z,3.60
2023-02-03T03:45:14.892Z,3.61
2023-02-03T03:47:50.553Z,3.63
2023-02-03T03:50:19.584Z,3.66
2023-02-03T03:52:47.908Z,3.68
2023-02-03T03:55:16.722Z,3.70
2023-02-03T03:58:03.867Z,3.70
2023-02-03T04:00:33.294Z,3.70
2023-02-03T04:03:05.560Z,3.72
2023-02-03T04:05:34.004Z,3.69
2023-02-03T04:08:03.868Z,3.70
2023-02-03T04:10:36.970Z,3.71
2023-02-03T04:13:05.961Z,3.72
2023-02-03T04:15:35.020Z,3.71
2023-02-03T04:18:03.315Z,3.69
2023-02-03T04:20:31.881Z,3.57
2023-02-03T04:23:00.679Z,3.51
2023-02-03T04:25:29.131Z,3.47
2023-02-03T04:27:57.705Z,3.35
2023-02-03T04:30:31.951Z,3.28
2023-02-03T04:35:56.286Z,3.37
2023-02-03T04:38:30.885Z,3.27
2023-02-03T04:41:03.671Z,3.02
2023-02-03T04:43:43.057Z,2.90
2023-02-03T04:46:14.006Z,2.93
2023-02-03T04:48:49.514Z,2.92
2023-02-03T04:51:32.969Z,2.90
2023-02-03T04:54:05.221Z,2.92
2023-02-03T04:59:29.386Z,3.11
2023-02-03T05:04:58.099Z,3.26
2023-02-03T05:07:26.151Z,3.30
2023-02-03T05:09:54.320Z,3.33
2023-02-03T05:12:22.381Z,3.35
2023-02-03T05:14:50.539Z,3.36
2023-02-03T05:17:18.779Z,3.35
2023-02-03T05:19:46.821Z,3.34
2023-02-03T05:22:15.068Z,3.33
2023-02-03T05:24:43.502Z,3.34
2023-02-03T05:27:11.574Z,3.34
2023-02-03T05:29:39.630Z,3.34
2023-02-03T05:32:07.767Z,3.36
2023-02-03T05:34:36.939Z,3.37
2023-02-03T05:37:05.191Z,3.39
2023-02-03T05:39:34.490Z,3.43
2023-02-03T05:42:03.517Z,3.46
2023-02-03T05:44:32.568Z,3.48
2023-02-03T05:47:00.787Z,3.50
2023-02-03T05:49:30.749Z,3.50
2023-02-03T05:52:01.651Z,3.50
2023-02-03T05:54:30.406Z,3.51
2023-02-03T05:56:58.613Z,3.52
2023-02-03T05:59:26.736Z,3.54
2023-02-03T06:01:55.006Z,3.55
2023-02-03T06:04:23.390Z,3.56
2023-02-03T06:06:51.571Z,3.58
2023-02-03T06:09:19.910Z,3.61
2023-02-03T06:11:49.483Z,3.62
2023-02-03T06:14:17.781Z,3.64
2023-02-03T06:16:46.278Z,3.67
2023-02-03T06:19:16.305Z,3.70
2023-02-03T06:21:45.091Z,3.74
2023-02-03T06:24:18.407Z,3.78
2023-02-03T06:26:53.962Z,3.82
2023-02-03T06:29:25.101Z,3.85
2023-02-03T06:31:56.540Z,3.89
2023-02-03T06:34:33.382Z,3.91
2023-02-03T06:37:10.595Z,3.92
2023-02-03T06:39:43.385Z,3.95
2023-02-03T06:45:00.161Z,3.98
2023-02-03T06:47:37.020Z,3.99
2023-02-03T06:50:15.568Z,3.99
2023-02-03T06:55:37.405Z,4.00
2023-02-03T06:58:21.663Z,4.02
2023-02-03T07:01:04.292Z,4.01
2023-02-03T07:03:42.239Z,4.03
2023-02-03T07:06:16.190Z,4.04
2023-02-03T07:08:52.098Z,4.05
2023-02-03T07:11:24.212Z,4.05
2023-02-03T07:14:06.240Z,4.05
2023-02-03T07:16:46.161Z,4.05
2023-02-03T07:19:21.304Z,4.03
2023-02-03T07:21:57.371Z,4.01
2023-02-03T07:24:28.165Z,4.00
2023-02-03T07:27:04.693Z,4.01
2023-02-03T07:29:41.340Z,4.00
2023-02-03T07:32:16.361Z,3.98
2023-02-03T07:34:58.637Z,3.95
2023-02-03T07:40:14.264Z,3.90
2023-02-03T07:43:06.090Z,3.90
2023-02-03T07:45:36.779Z,3.88
2023-02-03T07:48:15.587Z,3.87
2023-02-03T07:50:50.927Z,3.83
2023-02-03T07:53:32.943Z,3.82
2023-02-03T07:56:03.173Z,3.79
2023-02-03T07:58:43.957Z,3.78
2023-02-03T08:01:33.164Z,3.80
2023-02-03T08:04:08.108Z,3.82
2023-02-03T08:06:45.813Z,3.82
2023-02-03T08:09:15.253Z,3.82
2023-02-03T08:11:45.553Z,3.83
2023-02-03T08:14:13.888Z,3.81
2023-02-03T08:16:50.519Z,3.82
2023-02-03T08:22:16.804Z,3.83
2023-02-03T08:24:48.579Z,3.86
2023-02-03T08:27:23.395Z,3.85
2023-02-03T08:29:54.091Z,3.85
2023-02-03T08:32:28.578Z,3.82
2023-02-03T08:35:02.032Z,3.79
2023-02-03T08:37:35.643Z,3.76
2023-02-03T08:40:09.285Z,3.71
2023-02-03T08:42:42.746Z,3.69
2023-02-03T08:45:10.995Z,3.72
2023-02-03T08:47:40.206Z,3.71
2023-02-03T08:50:09.448Z,3.69
2023-02-03T08:52:37.575Z,3.68
2023-02-03T08:55:06.706Z,3.66
2023-02-03T08:57:36.516Z,3.61
2023-02-03T09:00:05.404Z,3.57
2023-02-03T09:02:33.693Z,3.55
2023-02-03T09:05:02.036Z,3.57
2023-02-03T09:07:31.960Z,3.63
2023-02-03T09:10:00.730Z,3.67
2023-02-03T09:12:31.580Z,3.69
2023-02-03T09:15:02.544Z,3.74
2023-02-03T09:17:31.546Z,3.80
2023-02-03T09:19:59.855Z,3.83
2023-02-03T09:22:28.829Z,3.85
2023-02-03T09:24:57.420Z,3.87
2023-02-03T09:27:25.707Z,3.89
2023-02-03T09:29:54.264Z,3.94
2023-02-03T09:32:22.695Z,3.97
2023-02-03T09:34:50.862Z,3.98
2023-02-03T09:37:19.320Z,4.03
2023-02-03T09:39:48.974Z,4.10
2023-02-03T09:42:25.806Z,4.15
2023-02-03T09:45:18.211Z,4.19
2023-02-03T09:47:54.181Z,4.19
2023-02-03T09:50:25.440Z,4.20
2023-02-03T09:52:53.925Z,4.22
2023-02-03T09:55:26.200Z,4.24
2023-02-03T09:58:07.060Z,4.25
2023-02-03T10:00:37.571Z,4.28
2023-02-03T10:03:28.470Z,4.33
2023-02-03T10:05:56.954Z,4.35
2023-02-03T10:08:48.681Z,4.35
2023-02-03T10:11:36.509Z,4.33
2023-02-03T10:14:40.030Z,4.32
2023-02-03T10:17:17.480Z,4.34
2023-02-03T10:19:50.629Z,4.36
2023-02-03T10:22:21.416Z,4.40
2023-02-03T10:25:00.227Z,4.44
2023-02-03T10:27:28.352Z,4.46
2023-02-03T10:30:04.708Z,4.48
2023-02-03T10:32:34.112Z,4.48
2023-02-03T10:35:03.214Z,4.53
2023-02-03T10:37:44.056Z,4.57
2023-02-03T10:40:14.330Z,4.62
2023-02-03T10:43:02.337Z,4.66
2023-02-03T10:45:31.834Z,4.71
2023-02-03T10:48:00.191Z,4.75
2023-02-03T10:50:32.091Z,4.76
2023-02-03T10:53:35.620Z,4.73
2023-02-03T10:56:05.237Z,4.68
2023-02-03T10:58:34.268Z,4.67
2023-02-03T11:01:15.697Z,4.66
2023-02-03T11:04:02.101Z,4.68
2023-02-03T11:06:31.534Z,4.72
2023-02-03T11:09:00.114Z,4.77
2023-02-03T11:11:34.551Z,4.84
2023-02-03T11:14:02.834Z,4.87
2023-02-03T11:16:34.309Z,4.87
2023-02-03T11:19:04.974Z,4.89
2023-02-03T11:21:44.337Z,4.92
2023-02-03T11:24:39.703Z,4.95
2023-02-03T11:27:11.224Z,5.01
2023-02-03T11:30:09.050Z,5.03
2023-02-03T11:32:38.295Z,5.08
2023-02-03T11:35:27.667Z,5.12
2023-02-03T11:37:57.154Z,5.13
2023-02-03T11:40:34.233Z,5.11
2023-02-03T11:43:02.576Z,5.12
2023-02-03T11:45:55.262Z,5.10
2023-02-03T11:48:35.391Z,5.05
2023-02-03T11:51:15.690Z,5.03
2023-02-03T11:54:02.497Z,4.98
2023-02-03T11:56:43.159Z,4.90
2023-02-03T11:59:24.510Z,4.84
2023-02-03T12:02:01.819Z,4.75
2023-02-03T12:04:55.043Z,4.68
2023-02-03T12:07:35.372Z,4.62
2023-02-03T12:10:27.580Z,4.53
2023-02-03T12:13:25.239Z,4.49
2023-02-03T12:16:14.278Z,4.46
2023-02-03T12:19:21.243Z,4.46
2023-02-03T12:21:55.781Z,4.48
2023-02-03T12:24:25.096Z,4.49
2023-02-03T12:27:36.546Z,4.48
2023-02-03T12:30:28.392Z,4.45
2023-02-03T12:32:59.625Z,4.41
2023-02-03T12:35:59.792Z,4.38
2023-02-03T12:38:49.249Z,4.37
2023-02-03T12:41:21.172Z,4.31
2023-02-03T12:43:52.809Z,4.29
2023-02-03T12:47:07.617Z,4.28
2023-02-03T12:49:46.337Z,4.30
2023-02-03T12:52:20.564Z,4.26
2023-02-03T12:55:17.723Z,4.23
2023-02-03T12:57:55.675Z,4.22
2023-02-03T13:00:35.263Z,4.22
2023-02-03T13:03:20.889Z,4.19
2023-02-03T13:06:02.655Z,4.18
2023-02-03T13:08:55.912Z,4.16
2023-02-03T13:11:48.004Z,4.19
2023-02-03T13:14:33.418Z,4.23
2023-02-03T13:17:25.388Z,4.24
2023-02-03T13:19:57.588Z,4.28
2023-02-03T13:22:25.901Z,4.28
2023-02-03T13:25:01.752Z,4.22
2023-02-03T13:27:45.113Z,4.17
2023-02-03T13:30:35.253Z,4.07
2023-02-03T13:33:03.461Z,4.00
2023-02-03T13:35:57.978Z,3.95
2023-02-03T13:38:44.708Z,3.87
2023-02-03T13:41:37.200Z,3.79
2023-02-03T13:44:05.296Z,3.74
2023-02-03T13:46:35.155Z,3.68
2023-02-03T13:49:04.303Z,3.63
2023-02-03T13:51:34.971Z,3.58
2023-02-03T13:54:08.400Z,3.54
2023-02-03T13:56:39.550Z,3.52
2023-02-03T13:59:13.891Z,3.49
2023-02-03T14:01:42.735Z,3.46
2023-02-03T14:04:26.457Z,3.43
2023-02-03T14:06:59.205Z,3.39
2023-02-03T14:09:30.368Z,3.37
2023-02-03T14:12:21.712Z,3.35
2023-02-03T14:14:52.837Z,3.35
2023-02-03T14:17:36.343Z,3.34
2023-02-03T14:20:25.508Z,3.32
2023-02-03T14:22:55.084Z,3.33
2023-02-03T14:25:23.392Z,3.33
2023-02-03T14:28:02.045Z,3.34
2023-02-03T14:30:30.582Z,3.34
2023-02-03T14:33:00.151Z,3.34
2023-02-03T14:35:41.161Z,3.31
2023-02-03T14:38:14.057Z,3.31
2023-02-03T14:40:42.593Z,3.29
2023-02-03T14:43:38.063Z,3.28
2023-02-03T14:46:41.817Z,3.26
2023-02-03T14:49:18.901Z,3.24
2023-02-03T14:51:51.574Z,3.22
2023-02-03T14:54:28.893Z,3.18
2023-02-03T14:57:49.747Z,3.12
2023-02-03T15:00:20.795Z,3.04
2023-02-03T15:03:09.412Z,3.00
2023-02-03T15:05:45.814Z,2.95
2023-02-03T15:08:36.344Z,2.93
2023-02-03T15:11:16.988Z,2.92
2023-02-03T15:13:45.181Z,2.91
2023-02-03T15:16:16.104Z,2.90
2023-02-03T15:18:44.637Z,2.85
2023-02-03T15:21:17.804Z,2.81
2023-02-03T15:23:49.738Z,2.78
2023-02-03T15:26:24.401Z,2.76
2023-02-03T15:29:03.345Z,2.75
2023-02-03T15:31:37.928Z,2.75
2023-02-03T15:34:36.841Z,2.77
2023-02-03T15:37:27.939Z,2.76
2023-02-03T15:40:13.725Z,2.71
2023-02-03T15:42:56.556Z,2.67
2023-02-03T15:45:24.724Z,2.65
2023-02-03T15:47:58.425Z,2.65
2023-02-03T15:50:32.476Z,2.65
2023-02-03T15:53:26.218Z,2.65
2023-02-03T15:55:57.091Z,2.65
2023-02-03T15:58:29.500Z,2.62
2023-02-03T16:01:03.405Z,2.59
2023-02-03T16:03:41.392Z,2.56
2023-02-03T16:06:25.312Z,2.53
2023-02-03T16:08:54.464Z,2.51
2023-02-03T16:11:38.472Z,2.51
2023-02-03T16:14:11.727Z,2.50
2023-02-03T16:17:05.473Z,2.50
2023-02-03T16:22:36.495Z,2.51
2023-02-03T16:25:25.994Z,2.50
2023-02-03T16:28:35.243Z,2.50
2023-02-03T16:31:32.671Z,2.52
2023-02-03T16:34:40.348Z,2.52
2023-02-03T16:37:32.903Z,2.51
2023-02-03T16:40:19.876Z,2.48
2023-02-03T16:43:08.118Z,2.45
2023-02-03T16:45:54.804Z,2.41
2023-02-03T16:48:44.048Z,2.39
2023-02-03T16:51:16.027Z,2.38
2023-02-03T16:53:45.304Z,2.36
2023-02-03T16:56:14.033Z,2.35
2023-02-03T16:58:42.566Z,2.32
2023-02-03T17:01:11.923Z,2.31
2023-02-03T17:03:40.291Z,2.31
2023-02-03T17:06:12.835Z,2.31
2023-02-03T17:08:41.451Z,2.30
2023-02-03T17:11:17.270Z,2.29
2023-02-03T17:13:46.301Z,2.28
2023-02-03T17:16:19.083Z,2.28
2023-02-03T17:18:47.747Z,2.28
2023-02-03T17:21:18.994Z,2.27
2023-02-03T17:23:50.784Z,2.25
2023-02-03T17:26:19.536Z,2.23
2023-02-03T17:28:50.404Z,2.21
2023-02-03T17:31:22.502Z,2.21
2023-02-03T17:33:52.654Z,2.23
2023-02-03T17:36:22.012Z,2.23
2023-02-03T17:55:32.809Z,2.18
2023-02-03T17:58:04.249Z,2.19
2023-02-03T18:00:33.044Z,2.20
2023-02-03T18:03:02.924Z,2.21
2023-02-03T18:05:35.588Z,2.21
2023-02-03T18:08:09.268Z,2.21
2023-02-03T18:10:44.736Z,2.21
2023-02-03T18:13:13.480Z,2.20
2023-02-03T18:15:42.090Z,2.17
2023-02-03T18:18:10.394Z,2.13
2023-02-03T18:20:38.664Z,2.14
2023-02-03T18:23:06.982Z,2.14
2023-02-03T18:25:36.262Z,2.15
2023-02-03T18:28:04.862Z,2.17
2023-02-03T18:30:33.699Z,2.18
2023-02-03T18:33:05.466Z,2.17
2023-02-03T18:35:34.579Z,2.18
2023-02-03T18:38:03.262Z,2.18
2023-02-03T18:40:32.115Z,2.19
2023-02-03T18:43:02.415Z,2.21
2023-02-03T18:45:31.384Z,2.23
2023-02-03T18:47:59.962Z,2.23
2023-02-03T18:50:28.688Z,2.23
2023-02-03T18:52:57.244Z,2.23
2023-02-03T18:55:25.568Z,2.23
2023-02-03T18:57:53.899Z,2.22
2023-02-03T19:00:22.225Z,2.20
2023-02-03T19:02:50.482Z,2.20
2023-02-03T19:05:19.586Z,2.19
2023-02-03T19:07:48.418Z,2.19
2023-02-03T19:10:25.549Z,2.20
2023-02-03T19:12:59.599Z,2.19
2023-02-03T19:15:27.703Z,2.19
2023-02-03T19:17:56.230Z,2.19
2023-02-03T19:25:52.677Z,2.21
2023-02-03T19:28:30.415Z,2.22
2023-02-03T19:31:08.277Z,2.23
2023-02-03T19:33:37.403Z,2.23
2023-02-03T19:36:06.152Z,2.22
2023-02-03T19:38:35.441Z,2.22
2023-02-03T19:41:04.039Z,2.22
2023-02-03T19:43:32.611Z,2.21
2023-02-03T19:46:00.832Z,2.21
2023-02-03T19:48:29.578Z,2.21
2023-02-03T19:50:57.868Z,2.20
2023-02-03T19:53:26.120Z,2.18
2023-02-03T19:55:54.536Z,2.18
2023-02-03T19:58:26.308Z,2.17
2023-02-03T20:00:54.497Z,2.13
2023-02-03T20:03:23.757Z,2.13
2023-02-03T20:05:54.846Z,2.14
2023-02-03T20:08:43.071Z,2.15
2023-02-03T20:11:13.099Z,2.14
2023-02-03T20:13:43.572Z,2.14
2023-02-03T20:16:11.806Z,2.15
2023-02-03T20:18:41.251Z,2.16
2023-02-03T20:21:09.890Z,2.15
2023-02-03T20:23:40.491Z,2.15
2023-02-03T20:26:08.772Z,2.14
2023-02-03T20:28:38.837Z,2.16
2023-02-03T20:31:08.100Z,2.17
2023-02-03T20:33:36.382Z,2.16
2023-02-03T20:36:05.253Z,2.17
2023-02-03T20:38:33.292Z,2.17
2023-02-03T20:41:01.647Z,2.16
2023-02-03T20:43:31.294Z,2.15
2023-02-03T20:45:59.430Z,2.14
2023-02-03T20:48:27.663Z,2.15
2023-02-03T20:50:56.116Z,2.18
2023-02-03T20:53:25.597Z,2.19
2023-02-03T20:55:57.222Z,2.21
2023-02-03T20:58:26.819Z,2.18
2023-02-03T21:00:57.756Z,2.18
2023-02-03T21:03:45.407Z,2.19
2023-02-03T21:06:20.372Z,2.19
2023-02-03T21:08:48.774Z,2.18
2023-02-03T21:11:18.914Z,2.17
2023-02-03T21:13:48.970Z,2.19
2023-02-03T21:16:19.600Z,2.19
2023-02-03T21:19:02.940Z,2.15
2023-02-03T21:21:38.291Z,2.14
2023-02-03T21:24:26.151Z,2.09
2023-02-03T21:26:54.769Z,2.06
2023-02-03T21:29:27.417Z,2.05
2023-02-03T21:31:56.443Z,2.04
2023-02-03T21:34:32.159Z,2.04
2023-02-03T21:37:20.489Z,2.05
2023-02-03T21:39:48.824Z,2.03
2023-02-03T21:42:42.309Z,2.02
2023-02-03T21:45:22.614Z,2.00
2023-02-03T21:47:52.695Z,2.00
2023-02-03T21:50:28.158Z,1.98
2023-02-03T21:53:18.268Z,2.01
2023-02-03T21:55:48.708Z,2.04
2023-02-03T21:58:29.265Z,2.01
2023-02-03T22:00:58.940Z,1.96
2023-02-03T22:03:35.864Z,1.95
2023-02-03T22:06:19.447Z,1.95
2023-02-03T22:08:49.218Z,1.94
2023-02-03T22:11:21.284Z,1.92
2023-02-03T22:13:52.669Z,1.91
2023-02-03T22:16:21.686Z,1.89
2023-02-03T22:18:50.287Z,1.88
2023-02-03T22:21:18.968Z,1.88
2023-02-03T22:23:47.652Z,1.88
2023-02-03T22:26:16.845Z,1.86
2023-02-03T22:28:45.518Z,1.85
2023-02-03T22:31:14.258Z,1.85
2023-02-03T22:33:42.906Z,1.85
2023-02-03T22:36:11.763Z,1.86
2023-02-03T22:38:40.562Z,1.86
2023-02-03T22:41:12.092Z,1.85
2023-02-03T22:43:40.765Z,1.86
2023-02-03T22:46:09.323Z,1.87
2023-02-03T22:48:38.148Z,1.86
2023-02-03T22:51:06.858Z,1.86
2023-02-03T22:53:35.471Z,1.86
2023-02-03T22:56:04.418Z,1.87
2023-02-03T22:58:32.870Z,1.88
2023-02-03T23:01:01.434Z,1.87
2023-02-03T23:03:32.826Z,1.86
2023-02-03T23:06:01.903Z,1.85
2023-02-03T23:08:30.609Z,1.85
2023-02-03T23:10:59.134Z,1.85
2023-02-03T23:13:28.472Z,1.86
2023-02-03T23:15:57.038Z,1.86
2023-02-03T23:18:25.853Z,1.86
2023-02-03T23:20:54.640Z,1.87
2023-02-03T23:23:23.250Z,1.89
2023-02-03T23:25:51.672Z,1.88
2023-02-03T23:28:20.599Z,1.83
2023-02-03T23:30:49.203Z,1.74
2023-02-03T23:33:18.113Z,1.62
2023-02-03T23:35:46.689Z,1.50
2023-02-03T23:38:15.821Z,1.39
2023-02-03T23:40:44.303Z,1.29
2023-02-03T23:43:12.803Z,1.16
2023-02-03T23:45:41.245Z,1.03
2023-02-03T23:48:10.129Z,0.99
2023-02-03T23:50:38.906Z,0.94
2023-02-03T23:53:07.451Z,0.90
2023-02-03T23:55:38.051Z,0.86
2023-02-03T23:58:06.681Z,0.84
